Tyrone, New York
Current Conditions -  °F | °C
As of 2:53 AM on Saturday 20 Dec 2014 (Local Time) from KPEO Reporting Station
Overcast Overcast  
Wind Chill: -2°   Ceiling: 1800
Heat Index: -2°   Visibility: 10mi
Dew Point: -6°   Wind: 3mph
Humidity: 78%   Direction: NA
Pressure: 30.2"   Gusts: NA
Location:  42.41°N, 77.06°W
Report Text: KPEO 200753Z AUTO VRB03KT 10SM OVC018 M02/M06 A3020 RMK AO2 SLP238 T10221056
Loading
Personal Weather Stations






























Interactive Weather Map New forecast layout! Learn more

10-Day Weather Forecast

Advertisements
Track Severe Weather on mobile